sensor_id;sensor_type;location;lat;lon;timestamp;P1;durP1;ratioP1;P2;durP2;ratioP2
78664;SDS011;67981;51.022;-2.870;2023-04-25T00:01:10;12.13;;;6.38;;
78664;SDS011;67981;51.022;-2.870;2023-04-25T00:03:37;12.80;;;6.00;;
78664;SDS011;67981;51.022;-2.870;2023-04-25T00:06:04;13.18;;;6.68;;
78664;SDS011;67981;51.022;-2.870;2023-04-25T00:08:29;12.88;;;6.90;;
78664;SDS011;67981;51.022;-2.870;2023-04-25T00:10:56;12.48;;;6.13;;
78664;SDS011;67981;51.022;-2.870;2023-04-25T00:13:21;15.20;;;7.18;;
78664;SDS011;67981;51.022;-2.870;2023-04-25T00:15:47;16.00;;;7.72;;
78664;SDS011;67981;51.022;-2.870;2023-04-25T00:18:13;12.95;;;6.50;;
78664;SDS011;67981;51.022;-2.870;2023-04-25T00:20:39;12.68;;;6.93;;
78664;SDS011;67981;51.022;-2.870;2023-04-25T00:23:05;15.32;;;7.03;;
78664;SDS011;67981;51.022;-2.870;2023-04-25T00:25:30;15.55;;;8.02;;
78664;SDS011;67981;51.022;-2.870;2023-04-25T00:27:56;12.32;;;6.45;;
78664;SDS011;67981;51.022;-2.870;2023-04-25T00:30:21;16.93;;;7.70;;
78664;SDS011;67981;51.022;-2.870;2023-04-25T00:32:47;13.45;;;7.25;;
78664;SDS011;67981;51.022;-2.870;2023-04-25T00:35:13;15.13;;;6.30;;
78664;SDS011;67981;51.022;-2.870;2023-04-25T00:37:39;12.98;;;6.88;;
78664;SDS011;67981;51.022;-2.870;2023-04-25T00:40:05;11.25;;;6.72;;
78664;SDS011;67981;51.022;-2.870;2023-04-25T00:42:31;16.60;;;7.40;;
78664;SDS011;67981;51.022;-2.870;2023-04-25T00:44:57;11.27;;;6.85;;
78664;SDS011;67981;51.022;-2.870;2023-04-25T00:47:24;13.38;;;7.00;;
78664;SDS011;67981;51.022;-2.870;2023-04-25T00:49:50;12.40;;;6.68;;
78664;SDS011;67981;51.022;-2.870;2023-04-25T00:52:16;12.75;;;7.28;;
78664;SDS011;67981;51.022;-2.870;2023-04-25T00:54:41;13.00;;;6.60;;
78664;SDS011;67981;51.022;-2.870;2023-04-25T00:57:07;12.73;;;6.63;;
78664;SDS011;67981;51.022;-2.870;2023-04-25T00:59:33;11.68;;;6.85;;
78664;SDS011;67981;51.022;-2.870;2023-04-25T01:01:58;15.68;;;8.20;;
78664;SDS011;67981;51.022;-2.870;2023-04-25T01:04:24;12.77;;;6.65;;
78664;SDS011;67981;51.022;-2.870;2023-04-25T01:06:52;12.27;;;6.20;;
78664;SDS011;67981;51.022;-2.870;2023-04-25T01:09:17;14.65;;;6.40;;
78664;SDS011;67981;51.022;-2.870;2023-04-25T01:11:44;12.95;;;6.72;;
78664;SDS011;67981;51.022;-2.870;2023-04-25T01:14:09;11.43;;;5.55;;
78664;SDS011;67981;51.022;-2.870;2023-04-25T01:16:35;16.13;;;6.80;;
78664;SDS011;67981;51.022;-2.870;2023-04-25T01:19:01;13.77;;;6.55;;
78664;SDS011;67981;51.022;-2.870;2023-04-25T01:21:29;10.20;;;5.93;;
78664;SDS011;67981;51.022;-2.870;2023-04-25T01:23:55;15.98;;;7.13;;
78664;SDS011;67981;51.022;-2.870;2023-04-25T01:26:22;14.35;;;6.93;;
78664;SDS011;67981;51.022;-2.870;2023-04-25T01:28:48;12.98;;;5.93;;
78664;SDS011;67981;51.022;-2.870;2023-04-25T01:31:14;11.40;;;5.85;;
78664;SDS011;67981;51.022;-2.870;2023-04-25T01:33:40;11.02;;;5.38;;
78664;SDS011;67981;51.022;-2.870;2023-04-25T01:36:06;13.73;;;6.82;;
78664;SDS011;67981;51.022;-2.870;2023-04-25T01:38:31;20.10;;;6.30;;
78664;SDS011;67981;51.022;-2.870;2023-04-25T01:40:57;14.77;;;6.85;;
78664;SDS011;67981;51.022;-2.870;2023-04-25T01:43:22;14.80;;;6.10;;
78664;SDS011;67981;51.022;-2.870;2023-04-25T01:45:49;9.45;;;5.13;;
78664;SDS011;67981;51.022;-2.870;2023-04-25T01:48:15;11.73;;;5.15;;
78664;SDS011;67981;51.022;-2.870;2023-04-25T01:50:40;12.63;;;6.03;;
78664;SDS011;67981;51.022;-2.870;2023-04-25T01:53:06;11.13;;;6.35;;
78664;SDS011;67981;51.022;-2.870;2023-04-25T01:55:33;14.68;;;6.03;;
78664;SDS011;67981;51.022;-2.870;2023-04-25T01:57:59;12.43;;;6.27;;
78664;SDS011;67981;51.022;-2.870;2023-04-25T02:00:27;13.32;;;5.68;;
78664;SDS011;67981;51.022;-2.870;2023-04-25T02:02:52;9.50;;;5.70;;
78664;SDS011;67981;51.022;-2.870;2023-04-25T02:05:18;16.05;;;7.10;;
78664;SDS011;67981;51.022;-2.870;2023-04-25T02:07:44;10.93;;;6.05;;
78664;SDS011;67981;51.022;-2.870;2023-04-25T02:10:09;13.20;;;6.30;;
78664;SDS011;67981;51.022;-2.870;2023-04-25T02:12:35;14.25;;;5.97;;
78664;SDS011;67981;51.022;-2.870;2023-04-25T02:15:00;10.57;;;5.18;;
78664;SDS011;67981;51.022;-2.870;2023-04-25T02:17:26;10.63;;;5.32;;
78664;SDS011;67981;51.022;-2.870;2023-04-25T02:19:52;13.27;;;5.45;;
78664;SDS011;67981;51.022;-2.870;2023-04-25T02:22:17;11.38;;;5.07;;
78664;SDS011;67981;51.022;-2.870;2023-04-25T02:24:42;11.15;;;6.20;;
78664;SDS011;67981;51.022;-2.870;2023-04-25T02:27:08;13.13;;;6.00;;
78664;SDS011;67981;51.022;-2.870;2023-04-25T02:29:33;17.38;;;6.00;;
78664;SDS011;67981;51.022;-2.870;2023-04-25T02:31:58;11.98;;;5.45;;
78664;SDS011;67981;51.022;-2.870;2023-04-25T02:34:24;9.93;;;5.33;;
78664;SDS011;67981;51.022;-2.870;2023-04-25T02:36:49;13.75;;;6.18;;
78664;SDS011;67981;51.022;-2.870;2023-04-25T02:39:17;14.80;;;5.78;;
78664;SDS011;67981;51.022;-2.870;2023-04-25T02:41:43;10.32;;;4.78;;
78664;SDS011;67981;51.022;-2.870;2023-04-25T02:44:09;11.38;;;5.55;;
78664;SDS011;67981;51.022;-2.870;2023-04-25T02:46:34;11.82;;;6.03;;
78664;SDS011;67981;51.022;-2.870;2023-04-25T02:49:00;10.68;;;4.80;;
78664;SDS011;67981;51.022;-2.870;2023-04-25T02:51:25;12.60;;;5.67;;
78664;SDS011;67981;51.022;-2.870;2023-04-25T02:53:51;10.35;;;5.25;;
78664;SDS011;67981;51.022;-2.870;2023-04-25T02:56:16;16.17;;;5.75;;
78664;SDS011;67981;51.022;-2.870;2023-04-25T02:58:42;8.98;;;4.80;;
78664;SDS011;67981;51.022;-2.870;2023-04-25T03:01:07;9.30;;;5.33;;
78664;SDS011;67981;51.022;-2.870;2023-04-25T03:03:32;12.93;;;6.00;;
78664;SDS011;67981;51.022;-2.870;2023-04-25T03:05:58;11.30;;;6.20;;
78664;SDS011;67981;51.022;-2.870;2023-04-25T03:08:23;14.67;;;6.67;;
78664;SDS011;67981;51.022;-2.870;2023-04-25T03:10:50;11.55;;;5.78;;
78664;SDS011;67981;51.022;-2.870;2023-04-25T03:13:17;13.07;;;6.07;;
78664;SDS011;67981;51.022;-2.870;2023-04-25T03:15:42;13.77;;;7.00;;
78664;SDS011;67981;51.022;-2.870;2023-04-25T03:18:08;12.55;;;6.97;;
78664;SDS011;67981;51.022;-2.870;2023-04-25T03:20:34;14.10;;;7.70;;
78664;SDS011;67981;51.022;-2.870;2023-04-25T03:22:59;12.70;;;6.38;;
78664;SDS011;67981;51.022;-2.870;2023-04-25T03:25:25;13.65;;;6.35;;
78664;SDS011;67981;51.022;-2.870;2023-04-25T03:27:50;10.93;;;6.13;;
78664;SDS011;67981;51.022;-2.870;2023-04-25T03:30:15;12.45;;;6.13;;
78664;SDS011;67981;51.022;-2.870;2023-04-25T03:32:41;13.20;;;5.97;;
78664;SDS011;67981;51.022;-2.870;2023-04-25T03:35:06;12.65;;;6.97;;
78664;SDS011;67981;51.022;-2.870;2023-04-25T03:37:32;16.27;;;6.82;;
78664;SDS011;67981;51.022;-2.870;2023-04-25T03:39:57;10.53;;;5.70;;
78664;SDS011;67981;51.022;-2.870;2023-04-25T03:42:23;12.00;;;5.60;;
78664;SDS011;67981;51.022;-2.870;2023-04-25T03:44:48;17.98;;;6.78;;
78664;SDS011;67981;51.022;-2.870;2023-04-25T03:47:14;12.73;;;5.72;;
78664;SDS011;67981;51.022;-2.870;2023-04-25T03:49:41;12.13;;;5.18;;
78664;SDS011;67981;51.022;-2.870;2023-04-25T03:52:06;13.55;;;5.40;;
78664;SDS011;67981;51.022;-2.870;2023-04-25T03:54:31;13.27;;;6.10;;
78664;SDS011;67981;51.022;-2.870;2023-04-25T03:56:57;13.27;;;6.00;;
78664;SDS011;67981;51.022;-2.870;2023-04-25T03:59:22;12.83;;;6.83;;
78664;SDS011;67981;51.022;-2.870;2023-04-25T04:01:48;14.07;;;7.00;;
78664;SDS011;67981;51.022;-2.870;2023-04-25T04:04:13;13.40;;;5.60;;
78664;SDS011;67981;51.022;-2.870;2023-04-25T04:06:38;10.27;;;5.20;;
78664;SDS011;67981;51.022;-2.870;2023-04-25T04:09:04;16.08;;;6.60;;
78664;SDS011;67981;51.022;-2.870;2023-04-25T04:11:29;13.70;;;6.72;;
78664;SDS011;67981;51.022;-2.870;2023-04-25T04:13:56;10.32;;;5.28;;
78664;SDS011;67981;51.022;-2.870;2023-04-25T04:16:21;9.90;;;5.20;;
78664;SDS011;67981;51.022;-2.870;2023-04-25T04:18:47;15.05;;;5.82;;
78664;SDS011;67981;51.022;-2.870;2023-04-25T04:21:12;14.83;;;5.70;;
78664;SDS011;67981;51.022;-2.870;2023-04-25T04:23:37;12.95;;;4.88;;
78664;SDS011;67981;51.022;-2.870;2023-04-25T04:26:03;10.30;;;6.17;;
78664;SDS011;67981;51.022;-2.870;2023-04-25T04:28:28;10.93;;;5.38;;
78664;SDS011;67981;51.022;-2.870;2023-04-25T04:30:54;11.85;;;4.80;;
78664;SDS011;67981;51.022;-2.870;2023-04-25T04:33:20;14.15;;;4.80;;
78664;SDS011;67981;51.022;-2.870;2023-04-25T04:35:46;8.77;;;4.47;;
78664;SDS011;67981;51.022;-2.870;2023-04-25T04:38:12;10.10;;;4.22;;
78664;SDS011;67981;51.022;-2.870;2023-04-25T04:40:40;8.25;;;3.78;;
78664;SDS011;67981;51.022;-2.870;2023-04-25T04:43:06;7.18;;;4.35;;
78664;SDS011;67981;51.022;-2.870;2023-04-25T04:45:33;7.38;;;3.55;;
78664;SDS011;67981;51.022;-2.870;2023-04-25T04:47:59;9.43;;;4.20;;
78664;SDS011;67981;51.022;-2.870;2023-04-25T04:50:24;11.02;;;3.83;;
78664;SDS011;67981;51.022;-2.870;2023-04-25T04:52:51;12.27;;;4.32;;
78664;SDS011;67981;51.022;-2.870;2023-04-25T04:55:16;15.55;;;4.63;;
78664;SDS011;67981;51.022;-2.870;2023-04-25T04:57:42;8.75;;;4.50;;
78664;SDS011;67981;51.022;-2.870;2023-04-25T05:00:07;7.82;;;3.45;;
78664;SDS011;67981;51.022;-2.870;2023-04-25T05:02:36;10.23;;;4.30;;
78664;SDS011;67981;51.022;-2.870;2023-04-25T05:05:02;8.65;;;4.75;;
78664;SDS011;67981;51.022;-2.870;2023-04-25T05:07:28;9.25;;;3.70;;
78664;SDS011;67981;51.022;-2.870;2023-04-25T05:09:53;13.40;;;4.53;;
78664;SDS011;67981;51.022;-2.870;2023-04-25T05:12:18;11.93;;;4.93;;
78664;SDS011;67981;51.022;-2.870;2023-04-25T05:14:44;8.85;;;4.30;;
78664;SDS011;67981;51.022;-2.870;2023-04-25T05:17:09;12.23;;;5.15;;
78664;SDS011;67981;51.022;-2.870;2023-04-25T05:19:34;11.90;;;4.32;;
78664;SDS011;67981;51.022;-2.870;2023-04-25T05:22:00;11.32;;;4.63;;
78664;SDS011;67981;51.022;-2.870;2023-04-25T05:24:25;9.40;;;4.28;;
78664;SDS011;67981;51.022;-2.870;2023-04-25T05:26:51;9.70;;;4.40;;
78664;SDS011;67981;51.022;-2.870;2023-04-25T05:29:16;9.03;;;4.00;;
78664;SDS011;67981;51.022;-2.870;2023-04-25T05:31:41;9.50;;;4.28;;
78664;SDS011;67981;51.022;-2.870;2023-04-25T05:34:07;10.13;;;3.57;;
78664;SDS011;67981;51.022;-2.870;2023-04-25T05:36:32;8.53;;;3.77;;
78664;SDS011;67981;51.022;-2.870;2023-04-25T05:38:58;14.68;;;3.70;;
78664;SDS011;67981;51.022;-2.870;2023-04-25T05:41:23;9.98;;;4.10;;
78664;SDS011;67981;51.022;-2.870;2023-04-25T05:43:48;13.82;;;3.95;;
78664;SDS011;67981;51.022;-2.870;2023-04-25T05:46:14;8.40;;;3.67;;
78664;SDS011;67981;51.022;-2.870;2023-04-25T05:48:42;5.65;;;3.00;;
78664;SDS011;67981;51.022;-2.870;2023-04-25T05:51:08;12.25;;;3.60;;
78664;SDS011;67981;51.022;-2.870;2023-04-25T05:53:33;4.85;;;2.65;;
78664;SDS011;67981;51.022;-2.870;2023-04-25T05:55:59;13.57;;;3.30;;
78664;SDS011;67981;51.022;-2.870;2023-04-25T05:58:24;8.35;;;3.03;;
78664;SDS011;67981;51.022;-2.870;2023-04-25T06:00:50;10.68;;;2.80;;
78664;SDS011;67981;51.022;-2.870;2023-04-25T06:03:15;9.48;;;3.35;;
78664;SDS011;67981;51.022;-2.870;2023-04-25T06:05:41;6.82;;;2.67;;
78664;SDS011;67981;51.022;-2.870;2023-04-25T06:08:07;8.80;;;3.28;;
78664;SDS011;67981;51.022;-2.870;2023-04-25T06:10:33;7.47;;;3.28;;
78664;SDS011;67981;51.022;-2.870;2023-04-25T06:12:58;7.38;;;3.60;;
78664;SDS011;67981;51.022;-2.870;2023-04-25T06:15:24;6.55;;;2.78;;
78664;SDS011;67981;51.022;-2.870;2023-04-25T06:17:49;7.80;;;2.70;;
78664;SDS011;67981;51.022;-2.870;2023-04-25T06:20:15;7.40;;;2.97;;
78664;SDS011;67981;51.022;-2.870;2023-04-25T06:22:40;6.78;;;3.33;;
78664;SDS011;67981;51.022;-2.870;2023-04-25T06:25:06;8.03;;;3.00;;
78664;SDS011;67981;51.022;-2.870;2023-04-25T06:27:32;8.80;;;3.00;;
78664;SDS011;67981;51.022;-2.870;2023-04-25T06:30:00;10.73;;;2.60;;
78664;SDS011;67981;51.022;-2.870;2023-04-25T06:32:26;8.82;;;2.67;;
78664;SDS011;67981;51.022;-2.870;2023-04-25T06:34:53;10.38;;;2.90;;
78664;SDS011;67981;51.022;-2.870;2023-04-25T06:37:18;12.80;;;3.13;;
78664;SDS011;67981;51.022;-2.870;2023-04-25T06:39:44;7.80;;;2.63;;
78664;SDS011;67981;51.022;-2.870;2023-04-25T06:42:09;8.05;;;2.65;;
78664;SDS011;67981;51.022;-2.870;2023-04-25T06:44:35;7.45;;;3.20;;
78664;SDS011;67981;51.022;-2.870;2023-04-25T06:47:00;8.60;;;2.72;;
78664;SDS011;67981;51.022;-2.870;2023-04-25T06:49:26;7.68;;;2.15;;
78664;SDS011;67981;51.022;-2.870;2023-04-25T06:51:51;4.97;;;2.38;;
78664;SDS011;67981;51.022;-2.870;2023-04-25T06:54:17;7.15;;;2.85;;
78664;SDS011;67981;51.022;-2.870;2023-04-25T06:56:42;11.25;;;2.80;;
78664;SDS011;67981;51.022;-2.870;2023-04-25T06:59:08;8.33;;;3.30;;
78664;SDS011;67981;51.022;-2.870;2023-04-25T07:01:34;10.80;;;3.15;;
78664;SDS011;67981;51.022;-2.870;2023-04-25T07:04:00;7.68;;;3.20;;
78664;SDS011;67981;51.022;-2.870;2023-04-25T07:06:25;7.28;;;2.55;;
78664;SDS011;67981;51.022;-2.870;2023-04-25T07:08:52;9.05;;;3.40;;
78664;SDS011;67981;51.022;-2.870;2023-04-25T07:11:18;12.05;;;3.00;;
78664;SDS011;67981;51.022;-2.870;2023-04-25T07:13:43;6.57;;;2.80;;
78664;SDS011;67981;51.022;-2.870;2023-04-25T07:16:08;10.23;;;3.00;;
78664;SDS011;67981;51.022;-2.870;2023-04-25T07:18:34;6.53;;;2.15;;
78664;SDS011;67981;51.022;-2.870;2023-04-25T07:20:59;8.20;;;5.03;;
78664;SDS011;67981;51.022;-2.870;2023-04-25T07:23:25;8.32;;;5.18;;
78664;SDS011;67981;51.022;-2.870;2023-04-25T07:25:50;7.55;;;4.38;;
78664;SDS011;67981;51.022;-2.870;2023-04-25T07:28:16;12.18;;;7.20;;
78664;SDS011;67981;51.022;-2.870;2023-04-25T07:30:41;10.83;;;5.30;;
78664;SDS011;67981;51.022;-2.870;2023-04-25T07:33:06;10.93;;;5.53;;
78664;SDS011;67981;51.022;-2.870;2023-04-25T07:35:32;14.30;;;8.67;;
78664;SDS011;67981;51.022;-2.870;2023-04-25T07:37:57;28.73;;;15.63;;
78664;SDS011;67981;51.022;-2.870;2023-04-25T07:40:23;64.78;;;43.30;;
78664;SDS011;67981;51.022;-2.870;2023-04-25T07:42:49;88.18;;;54.20;;
78664;SDS011;67981;51.022;-2.870;2023-04-25T07:45:15;93.65;;;64.93;;
78664;SDS011;67981;51.022;-2.870;2023-04-25T07:47:41;184.15;;;105.25;;
78664;SDS011;67981;51.022;-2.870;2023-04-25T07:50:06;39.42;;;26.60;;
78664;SDS011;67981;51.022;-2.870;2023-04-25T07:52:32;28.25;;;22.65;;
78664;SDS011;67981;51.022;-2.870;2023-04-25T07:54:57;13.50;;;9.33;;
78664;SDS011;67981;51.022;-2.870;2023-04-25T07:57:23;19.15;;;11.63;;
78664;SDS011;67981;51.022;-2.870;2023-04-25T07:59:49;18.02;;;10.68;;
78664;SDS011;67981;51.022;-2.870;2023-04-25T08:02:14;10.02;;;6.05;;
78664;SDS011;67981;51.022;-2.870;2023-04-25T08:04:40;11.97;;;8.83;;
78664;SDS011;67981;51.022;-2.870;2023-04-25T08:07:05;17.17;;;9.10;;
78664;SDS011;67981;51.022;-2.870;2023-04-25T08:09:31;6.32;;;4.50;;
78664;SDS011;67981;51.022;-2.870;2023-04-25T08:11:59;12.57;;;5.63;;
78664;SDS011;67981;51.022;-2.870;2023-04-25T08:14:25;3.88;;;2.10;;
78664;SDS011;67981;51.022;-2.870;2023-04-25T08:16:51;8.07;;;4.50;;
78664;SDS011;67981;51.022;-2.870;2023-04-25T08:19:16;16.58;;;13.02;;
78664;SDS011;67981;51.022;-2.870;2023-04-25T08:21:42;12.82;;;7.18;;
78664;SDS011;67981;51.022;-2.870;2023-04-25T08:24:07;8.27;;;3.75;;
78664;SDS011;67981;51.022;-2.870;2023-04-25T08:26:32;7.43;;;2.35;;
78664;SDS011;67981;51.022;-2.870;2023-04-25T08:28:59;9.38;;;3.97;;
78664;SDS011;67981;51.022;-2.870;2023-04-25T08:31:25;11.95;;;4.18;;
78664;SDS011;67981;51.022;-2.870;2023-04-25T08:33:50;8.73;;;3.53;;
78664;SDS011;67981;51.022;-2.870;2023-04-25T08:36:17;6.45;;;2.45;;
78664;SDS011;67981;51.022;-2.870;2023-04-25T08:38:42;5.25;;;2.88;;
78664;SDS011;67981;51.022;-2.870;2023-04-25T08:41:07;6.63;;;3.47;;
78664;SDS011;67981;51.022;-2.870;2023-04-25T08:43:36;7.78;;;3.05;;
78664;SDS011;67981;51.022;-2.870;2023-04-25T08:46:02;4.75;;;3.05;;
78664;SDS011;67981;51.022;-2.870;2023-04-25T08:48:28;4.30;;;2.65;;
78664;SDS011;67981;51.022;-2.870;2023-04-25T08:53:27;10.57;;;2.60;;
78664;SDS011;67981;51.022;-2.870;2023-04-25T08:55:54;9.07;;;2.80;;
78664;SDS011;67981;51.022;-2.870;2023-04-25T08:58:20;5.70;;;2.60;;
78664;SDS011;67981;51.022;-2.870;2023-04-25T09:00:46;4.03;;;2.05;;
78664;SDS011;67981;51.022;-2.870;2023-04-25T09:03:13;15.82;;;8.30;;
78664;SDS011;67981;51.022;-2.870;2023-04-25T09:05:39;15.20;;;10.00;;
78664;SDS011;67981;51.022;-2.870;2023-04-25T09:08:05;6.40;;;5.35;;
78664;SDS011;67981;51.022;-2.870;2023-04-25T09:10:32;7.47;;;5.82;;
78664;SDS011;67981;51.022;-2.870;2023-04-25T09:13:04;6.45;;;3.20;;
78664;SDS011;67981;51.022;-2.870;2023-04-25T09:15:46;7.13;;;2.60;;
78664;SDS011;67981;51.022;-2.870;2023-04-25T09:18:14;7.13;;;3.47;;
78664;SDS011;67981;51.022;-2.870;2023-04-25T09:20:48;8.38;;;3.22;;
78664;SDS011;67981;51.022;-2.870;2023-04-25T09:23:14;7.55;;;3.53;;
78664;SDS011;67981;51.022;-2.870;2023-04-25T09:25:39;6.40;;;2.83;;
78664;SDS011;67981;51.022;-2.870;2023-04-25T09:28:05;10.90;;;3.95;;
78664;SDS011;67981;51.022;-2.870;2023-04-25T09:30:32;7.60;;;2.90;;
78664;SDS011;67981;51.022;-2.870;2023-04-25T09:33:05;9.95;;;4.32;;
78664;SDS011;67981;51.022;-2.870;2023-04-25T09:35:35;6.35;;;2.42;;
78664;SDS011;67981;51.022;-2.870;2023-04-25T09:38:08;45.10;;;24.52;;
78664;SDS011;67981;51.022;-2.870;2023-04-25T09:40:41;3.88;;;1.80;;
78664;SDS011;67981;51.022;-2.870;2023-04-25T09:43:22;8.07;;;2.92;;
78664;SDS011;67981;51.022;-2.870;2023-04-25T09:45:49;12.65;;;6.82;;
78664;SDS011;67981;51.022;-2.870;2023-04-25T09:48:25;7.47;;;5.55;;
78664;SDS011;67981;51.022;-2.870;2023-04-25T09:55:59;11.55;;;7.03;;
78664;SDS011;67981;51.022;-2.870;2023-04-25T09:58:29;9.43;;;4.75;;
78664;SDS011;67981;51.022;-2.870;2023-04-25T10:00:55;6.65;;;5.00;;
78664;SDS011;67981;51.022;-2.870;2023-04-25T10:03:25;11.45;;;6.50;;
78664;SDS011;67981;51.022;-2.870;2023-04-25T10:05:51;8.02;;;3.08;;
78664;SDS011;67981;51.022;-2.870;2023-04-25T10:08:19;20.63;;;8.88;;
78664;SDS011;67981;51.022;-2.870;2023-04-25T10:10:45;7.22;;;3.22;;
78664;SDS011;67981;51.022;-2.870;2023-04-25T10:13:12;4.22;;;2.28;;
78664;SDS011;67981;51.022;-2.870;2023-04-25T10:15:39;3.45;;;1.80;;
78664;SDS011;67981;51.022;-2.870;2023-04-25T10:18:06;3.63;;;1.40;;
78664;SDS011;67981;51.022;-2.870;2023-04-25T10:20:32;4.28;;;2.13;;
78664;SDS011;67981;51.022;-2.870;2023-04-25T10:23:11;4.28;;;1.98;;
78664;SDS011;67981;51.022;-2.870;2023-04-25T10:25:38;2.55;;;1.23;;
78664;SDS011;67981;51.022;-2.870;2023-04-25T10:28:05;3.20;;;1.67;;
78664;SDS011;67981;51.022;-2.870;2023-04-25T10:30:30;7.05;;;2.13;;
78664;SDS011;67981;51.022;-2.870;2023-04-25T10:32:56;5.05;;;1.60;;
78664;SDS011;67981;51.022;-2.870;2023-04-25T10:35:25;4.45;;;1.85;;
78664;SDS011;67981;51.022;-2.870;2023-04-25T10:38:11;7.32;;;1.95;;
78664;SDS011;67981;51.022;-2.870;2023-04-25T10:40:39;3.13;;;1.35;;
78664;SDS011;67981;51.022;-2.870;2023-04-25T10:43:32;5.10;;;1.40;;
78664;SDS011;67981;51.022;-2.870;2023-04-25T10:45:56;4.85;;;1.95;;
78664;SDS011;67981;51.022;-2.870;2023-04-25T10:48:31;3.30;;;1.70;;
78664;SDS011;67981;51.022;-2.870;2023-04-25T10:51:15;6.65;;;3.45;;
78664;SDS011;67981;51.022;-2.870;2023-04-25T10:53:45;21.98;;;10.55;;
78664;SDS011;67981;51.022;-2.870;2023-04-25T10:56:20;23.83;;;13.70;;
78664;SDS011;67981;51.022;-2.870;2023-04-25T10:58:47;25.88;;;14.52;;
78664;SDS011;67981;51.022;-2.870;2023-04-25T11:01:13;5.25;;;3.15;;
78664;SDS011;67981;51.022;-2.870;2023-04-25T11:03:40;7.00;;;2.30;;
78664;SDS011;67981;51.022;-2.870;2023-04-25T11:08:56;6.80;;;2.50;;
78664;SDS011;67981;51.022;-2.870;2023-04-25T11:11:22;8.23;;;4.40;;
78664;SDS011;67981;51.022;-2.870;2023-04-25T11:13:49;6.82;;;4.93;;
78664;SDS011;67981;51.022;-2.870;2023-04-25T11:16:15;13.27;;;8.18;;
78664;SDS011;67981;51.022;-2.870;2023-04-25T11:18:41;7.18;;;6.40;;
78664;SDS011;67981;51.022;-2.870;2023-04-25T11:21:07;6.68;;;5.40;;
78664;SDS011;67981;51.022;-2.870;2023-04-25T11:23:33;3.42;;;1.30;;
78664;SDS011;67981;51.022;-2.870;2023-04-25T11:25:58;7.97;;;5.18;;
78664;SDS011;67981;51.022;-2.870;2023-04-25T11:28:26;9.25;;;6.80;;
78664;SDS011;67981;51.022;-2.870;2023-04-25T11:30:52;7.43;;;4.30;;
78664;SDS011;67981;51.022;-2.870;2023-04-25T11:33:18;8.98;;;6.47;;
78664;SDS011;67981;51.022;-2.870;2023-04-25T11:35:48;4.10;;;1.77;;
78664;SDS011;67981;51.022;-2.870;2023-04-25T11:38:13;6.45;;;3.40;;
78664;SDS011;67981;51.022;-2.870;2023-04-25T11:40:39;17.42;;;10.38;;
78664;SDS011;67981;51.022;-2.870;2023-04-25T11:43:05;14.10;;;6.68;;
78664;SDS011;67981;51.022;-2.870;2023-04-25T11:45:31;6.53;;;3.78;;
78664;SDS011;67981;51.022;-2.870;2023-04-25T11:47:56;6.03;;;4.15;;
78664;SDS011;67981;51.022;-2.870;2023-04-25T11:50:22;10.98;;;6.32;;
78664;SDS011;67981;51.022;-2.870;2023-04-25T11:52:47;13.93;;;6.07;;
78664;SDS011;67981;51.022;-2.870;2023-04-25T11:55:14;3.05;;;1.75;;
78664;SDS011;67981;51.022;-2.870;2023-04-25T11:57:42;32.08;;;14.93;;
78664;SDS011;67981;51.022;-2.870;2023-04-25T12:00:13;37.08;;;16.42;;
78664;SDS011;67981;51.022;-2.870;2023-04-25T12:02:47;9.52;;;4.43;;
78664;SDS011;67981;51.022;-2.870;2023-04-25T12:05:13;5.72;;;3.38;;
78664;SDS011;67981;51.022;-2.870;2023-04-25T12:07:42;19.30;;;9.68;;
78664;SDS011;67981;51.022;-2.870;2023-04-25T12:10:08;5.28;;;2.90;;
78664;SDS011;67981;51.022;-2.870;2023-04-25T12:12:36;4.88;;;4.10;;
78664;SDS011;67981;51.022;-2.870;2023-04-25T12:15:12;4.80;;;3.25;;
78664;SDS011;67981;51.022;-2.870;2023-04-25T12:17:48;4.70;;;1.83;;
78664;SDS011;67981;51.022;-2.870;2023-04-25T12:20:15;5.70;;;2.33;;
78664;SDS011;67981;51.022;-2.870;2023-04-25T12:22:42;4.97;;;2.03;;
78664;SDS011;67981;51.022;-2.870;2023-04-25T12:25:12;8.75;;;6.03;;
78664;SDS011;67981;51.022;-2.870;2023-04-25T12:27:38;5.88;;;2.55;;
78664;SDS011;67981;51.022;-2.870;2023-04-25T12:30:07;7.70;;;4.32;;
78664;SDS011;67981;51.022;-2.870;2023-04-25T12:32:33;4.88;;;1.40;;
78664;SDS011;67981;51.022;-2.870;2023-04-25T12:34:58;5.03;;;1.65;;
78664;SDS011;67981;51.022;-2.870;2023-04-25T12:37:24;6.18;;;3.28;;
78664;SDS011;67981;51.022;-2.870;2023-04-25T12:39:49;6.63;;;3.08;;
78664;SDS011;67981;51.022;-2.870;2023-04-25T12:42:15;5.80;;;2.97;;
78664;SDS011;67981;51.022;-2.870;2023-04-25T12:44:41;4.68;;;1.70;;
78664;SDS011;67981;51.022;-2.870;2023-04-25T12:47:06;5.13;;;1.80;;
78664;SDS011;67981;51.022;-2.870;2023-04-25T12:49:32;4.53;;;1.95;;
78664;SDS011;67981;51.022;-2.870;2023-04-25T12:51:57;5.45;;;1.83;;
78664;SDS011;67981;51.022;-2.870;2023-04-25T12:54:23;13.35;;;11.00;;
78664;SDS011;67981;51.022;-2.870;2023-04-25T12:56:49;3.90;;;2.85;;
78664;SDS011;67981;51.022;-2.870;2023-04-25T12:59:15;3.25;;;1.70;;
78664;SDS011;67981;51.022;-2.870;2023-04-25T13:01:40;3.45;;;1.48;;
78664;SDS011;67981;51.022;-2.870;2023-04-25T13:04:06;5.40;;;1.57;;
78664;SDS011;67981;51.022;-2.870;2023-04-25T13:06:31;6.97;;;3.70;;
78664;SDS011;67981;51.022;-2.870;2023-04-25T13:08:57;4.10;;;2.75;;
78664;SDS011;67981;51.022;-2.870;2023-04-25T13:11:22;4.18;;;2.63;;
78664;SDS011;67981;51.022;-2.870;2023-04-25T13:13:48;3.50;;;1.30;;
78664;SDS011;67981;51.022;-2.870;2023-04-25T13:16:13;4.05;;;1.58;;
78664;SDS011;67981;51.022;-2.870;2023-04-25T13:18:39;17.98;;;13.20;;
78664;SDS011;67981;51.022;-2.870;2023-04-25T13:21:05;8.95;;;5.43;;
78664;SDS011;67981;51.022;-2.870;2023-04-25T13:23:30;6.72;;;2.35;;
78664;SDS011;67981;51.022;-2.870;2023-04-25T13:25:56;5.25;;;1.85;;
78664;SDS011;67981;51.022;-2.870;2023-04-25T13:28:26;4.50;;;1.48;;
78664;SDS011;67981;51.022;-2.870;2023-04-25T13:30:52;4.65;;;2.03;;
78664;SDS011;67981;51.022;-2.870;2023-04-25T13:33:19;7.10;;;3.05;;
78664;SDS011;67981;51.022;-2.870;2023-04-25T13:35:45;4.60;;;2.60;;
78664;SDS011;67981;51.022;-2.870;2023-04-25T13:38:12;2.85;;;1.60;;
78664;SDS011;67981;51.022;-2.870;2023-04-25T13:40:38;3.83;;;1.60;;
78664;SDS011;67981;51.022;-2.870;2023-04-25T13:43:03;4.70;;;3.05;;
78664;SDS011;67981;51.022;-2.870;2023-04-25T13:45:31;7.60;;;2.70;;
78664;SDS011;67981;51.022;-2.870;2023-04-25T13:47:57;4.30;;;1.98;;
78664;SDS011;67981;51.022;-2.870;2023-04-25T13:50:22;3.15;;;1.50;;
78664;SDS011;67981;51.022;-2.870;2023-04-25T13:52:47;4.57;;;1.70;;
78664;SDS011;67981;51.022;-2.870;2023-04-25T13:55:13;3.63;;;1.40;;
78664;SDS011;67981;51.022;-2.870;2023-04-25T13:57:38;2.78;;;1.40;;
78664;SDS011;67981;51.022;-2.870;2023-04-25T14:00:04;4.15;;;1.92;;
78664;SDS011;67981;51.022;-2.870;2023-04-25T14:02:39;5.40;;;1.70;;
78664;SDS011;67981;51.022;-2.870;2023-04-25T14:05:05;4.32;;;1.38;;
78664;SDS011;67981;51.022;-2.870;2023-04-25T14:07:32;5.28;;;2.10;;
78664;SDS011;67981;51.022;-2.870;2023-04-25T14:09:58;3.05;;;1.50;;
78664;SDS011;67981;51.022;-2.870;2023-04-25T14:12:24;3.75;;;2.15;;
78664;SDS011;67981;51.022;-2.870;2023-04-25T14:14:50;5.78;;;1.75;;
78664;SDS011;67981;51.022;-2.870;2023-04-25T14:17:15;3.08;;;1.50;;
78664;SDS011;67981;51.022;-2.870;2023-04-25T14:19:41;3.88;;;1.30;;
78664;SDS011;67981;51.022;-2.870;2023-04-25T14:22:10;5.18;;;1.40;;
78664;SDS011;67981;51.022;-2.870;2023-04-25T14:24:35;3.70;;;1.58;;
78664;SDS011;67981;51.022;-2.870;2023-04-25T14:27:01;3.42;;;1.38;;
78664;SDS011;67981;51.022;-2.870;2023-04-25T14:29:26;3.05;;;1.55;;
78664;SDS011;67981;51.022;-2.870;2023-04-25T14:31:52;2.97;;;1.60;;
78664;SDS011;67981;51.022;-2.870;2023-04-25T14:34:19;2.55;;;1.40;;